Terminal Aerodrome Forecast
Issued by NWS Charleston, WV

Current Version | Previous Version | Graphics & Text | Print | Product List | Glossary On
Versions: 1 2 3 4 5 6 7 8 9 10 11 12 13 14 15 16 17 18 19 20 21 22 23 24 25 26
000
FTUS41 KRLX 161100 RRA
TAFEKN
TAF
KEKN 161153Z 1612/1712 16008KT 5SM -SHRA OVC035
     FM161400 18008KT 4SM -SHRA OVC024
     FM161600 25010KT P6SM OVC022
     FM161800 26013G23KT 4SM -SHRA OVC022
     FM162000 26012G21KT P6SM OVC015
     FM170100 26011G18KT P6SM OVC015
     FM170600 27013G22KT P6SM OVC015=

USA.gov is the U.S. government's official web portal to all federal, state and local government web resources and services.